Terminal Aerodrome Forecast
Issued by NWS

Home | Current Version | Previous Version | Graphics & Text | Print | Product List | Glossary On
Versions: 1 2 3 4 5 6 7 8 9 10 11 12 13 14
000
FTUS45 KGGW 201720
TAFOLF
TAF
KOLF 201720Z 2018/2118 07011KT P6SM VCSH BKN110
     FM210600 VRB06KT P6SM SCT160
     FM211300 32008KT P6SM SCT110
     FM211500 30012KT P6SM SCT150=

USA.gov is the U.S. government's official web portal to all federal, state and local government web resources and services.